sensor_id;sensor_type;location;lat;lon;timestamp;P1;durP1;ratioP1;P2;durP2;ratioP2
13571;SDS011;6857;53.484;10.216;2023-07-13T00:00:27;7.00;;;4.10;;
13571;SDS011;6857;53.484;10.216;2023-07-13T00:02:54;7.63;;;4.47;;
13571;SDS011;6857;53.484;10.216;2023-07-13T00:05:20;5.73;;;3.60;;
13571;SDS011;6857;53.484;10.216;2023-07-13T00:07:46;6.60;;;4.87;;
13571;SDS011;6857;53.484;10.216;2023-07-13T00:10:13;8.07;;;4.17;;
13571;SDS011;6857;53.484;10.216;2023-07-13T00:12:39;5.63;;;4.70;;
13571;SDS011;6857;53.484;10.216;2023-07-13T00:15:06;8.40;;;4.83;;
13571;SDS011;6857;53.484;10.216;2023-07-13T00:17:33;7.67;;;4.80;;
13571;SDS011;6857;53.484;10.216;2023-07-13T00:19:59;7.27;;;4.07;;
13571;SDS011;6857;53.484;10.216;2023-07-13T00:22:25;4.73;;;3.83;;
13571;SDS011;6857;53.484;10.216;2023-07-13T00:24:51;5.87;;;4.30;;
13571;SDS011;6857;53.484;10.216;2023-07-13T00:27:18;8.23;;;4.40;;
13571;SDS011;6857;53.484;10.216;2023-07-13T00:29:44;7.20;;;4.53;;
13571;SDS011;6857;53.484;10.216;2023-07-13T00:32:10;9.17;;;4.87;;
13571;SDS011;6857;53.484;10.216;2023-07-13T00:34:37;6.63;;;4.80;;
13571;SDS011;6857;53.484;10.216;2023-07-13T00:37:03;8.20;;;5.17;;
13571;SDS011;6857;53.484;10.216;2023-07-13T00:39:31;9.07;;;5.10;;
13571;SDS011;6857;53.484;10.216;2023-07-13T00:41:57;6.87;;;4.37;;
13571;SDS011;6857;53.484;10.216;2023-07-13T00:44:23;7.37;;;4.83;;
13571;SDS011;6857;53.484;10.216;2023-07-13T00:46:49;12.93;;;5.07;;
13571;SDS011;6857;53.484;10.216;2023-07-13T00:49:16;7.73;;;4.60;;
13571;SDS011;6857;53.484;10.216;2023-07-13T00:51:45;10.80;;;4.57;;
13571;SDS011;6857;53.484;10.216;2023-07-13T00:54:14;6.07;;;4.30;;
13571;SDS011;6857;53.484;10.216;2023-07-13T00:56:41;11.30;;;4.70;;
13571;SDS011;6857;53.484;10.216;2023-07-13T00:59:08;10.83;;;4.80;;
13571;SDS011;6857;53.484;10.216;2023-07-13T01:01:34;8.87;;;4.50;;
13571;SDS011;6857;53.484;10.216;2023-07-13T01:04:01;9.90;;;4.40;;
13571;SDS011;6857;53.484;10.216;2023-07-13T01:06:28;11.27;;;5.20;;
13571;SDS011;6857;53.484;10.216;2023-07-13T01:08:54;7.87;;;4.40;;
13571;SDS011;6857;53.484;10.216;2023-07-13T01:11:22;6.87;;;4.27;;
13571;SDS011;6857;53.484;10.216;2023-07-13T01:13:48;9.37;;;4.57;;
13571;SDS011;6857;53.484;10.216;2023-07-13T01:16:27;6.30;;;4.50;;
13571;SDS011;6857;53.484;10.216;2023-07-13T01:18:54;9.00;;;4.20;;
13571;SDS011;6857;53.484;10.216;2023-07-13T01:21:23;6.83;;;4.77;;
13571;SDS011;6857;53.484;10.216;2023-07-13T01:23:49;10.73;;;5.10;;
13571;SDS011;6857;53.484;10.216;2023-07-13T01:26:15;7.80;;;4.57;;
13571;SDS011;6857;53.484;10.216;2023-07-13T01:28:41;7.40;;;4.90;;
13571;SDS011;6857;53.484;10.216;2023-07-13T01:31:07;7.57;;;4.13;;
13571;SDS011;6857;53.484;10.216;2023-07-13T01:33:34;6.93;;;4.57;;
13571;SDS011;6857;53.484;10.216;2023-07-13T01:36:00;5.07;;;4.20;;
13571;SDS011;6857;53.484;10.216;2023-07-13T01:38:27;6.17;;;4.30;;
13571;SDS011;6857;53.484;10.216;2023-07-13T01:40:53;7.67;;;4.20;;
13571;SDS011;6857;53.484;10.216;2023-07-13T01:43:19;9.83;;;4.13;;
13571;SDS011;6857;53.484;10.216;2023-07-13T01:45:46;4.90;;;3.50;;
13571;SDS011;6857;53.484;10.216;2023-07-13T01:48:12;5.57;;;4.00;;
13571;SDS011;6857;53.484;10.216;2023-07-13T01:50:38;6.40;;;3.90;;
13571;SDS011;6857;53.484;10.216;2023-07-13T01:53:05;4.80;;;4.00;;
13571;SDS011;6857;53.484;10.216;2023-07-13T01:55:31;6.73;;;4.43;;
13571;SDS011;6857;53.484;10.216;2023-07-13T01:57:57;6.57;;;4.10;;
13571;SDS011;6857;53.484;10.216;2023-07-13T02:00:23;7.93;;;4.10;;
13571;SDS011;6857;53.484;10.216;2023-07-13T02:02:49;5.07;;;4.30;;
13571;SDS011;6857;53.484;10.216;2023-07-13T02:05:15;7.13;;;3.93;;
13571;SDS011;6857;53.484;10.216;2023-07-13T02:07:41;5.83;;;4.10;;
13571;SDS011;6857;53.484;10.216;2023-07-13T02:10:08;7.07;;;4.40;;
13571;SDS011;6857;53.484;10.216;2023-07-13T02:12:34;6.93;;;3.90;;
13571;SDS011;6857;53.484;10.216;2023-07-13T02:15:00;8.00;;;4.20;;
13571;SDS011;6857;53.484;10.216;2023-07-13T02:17:27;5.17;;;4.43;;
13571;SDS011;6857;53.484;10.216;2023-07-13T02:19:53;6.80;;;4.40;;
13571;SDS011;6857;53.484;10.216;2023-07-13T02:22:19;5.60;;;4.33;;
13571;SDS011;6857;53.484;10.216;2023-07-13T02:24:45;8.17;;;4.33;;
13571;SDS011;6857;53.484;10.216;2023-07-13T02:27:11;9.33;;;4.03;;
13571;SDS011;6857;53.484;10.216;2023-07-13T02:29:37;8.50;;;4.27;;
13571;SDS011;6857;53.484;10.216;2023-07-13T02:32:03;5.33;;;4.47;;
13571;SDS011;6857;53.484;10.216;2023-07-13T02:34:29;6.47;;;4.30;;
13571;SDS011;6857;53.484;10.216;2023-07-13T02:36:55;7.53;;;4.80;;
13571;SDS011;6857;53.484;10.216;2023-07-13T02:39:21;6.13;;;4.80;;
13571;SDS011;6857;53.484;10.216;2023-07-13T02:41:46;7.97;;;4.87;;
13571;SDS011;6857;53.484;10.216;2023-07-13T02:44:13;5.23;;;4.63;;
13571;SDS011;6857;53.484;10.216;2023-07-13T02:46:39;8.63;;;4.83;;
13571;SDS011;6857;53.484;10.216;2023-07-13T02:49:05;6.60;;;5.10;;
13571;SDS011;6857;53.484;10.216;2023-07-13T02:51:31;9.20;;;5.40;;
13571;SDS011;6857;53.484;10.216;2023-07-13T02:53:59;9.40;;;5.20;;
13571;SDS011;6857;53.484;10.216;2023-07-13T02:56:26;6.13;;;5.03;;
13571;SDS011;6857;53.484;10.216;2023-07-13T02:58:52;8.13;;;5.27;;
13571;SDS011;6857;53.484;10.216;2023-07-13T03:01:19;6.53;;;4.70;;
13571;SDS011;6857;53.484;10.216;2023-07-13T03:03:46;7.00;;;5.50;;
13571;SDS011;6857;53.484;10.216;2023-07-13T03:06:12;8.73;;;5.23;;
13571;SDS011;6857;53.484;10.216;2023-07-13T03:08:39;11.77;;;5.20;;
13571;SDS011;6857;53.484;10.216;2023-07-13T03:11:09;9.10;;;5.50;;
13571;SDS011;6857;53.484;10.216;2023-07-13T03:13:39;7.40;;;5.27;;
13571;SDS011;6857;53.484;10.216;2023-07-13T03:16:05;9.33;;;5.67;;
13571;SDS011;6857;53.484;10.216;2023-07-13T03:18:31;8.63;;;5.47;;
13571;SDS011;6857;53.484;10.216;2023-07-13T03:20:57;6.53;;;5.30;;
13571;SDS011;6857;53.484;10.216;2023-07-13T03:23:23;7.73;;;5.70;;
13571;SDS011;6857;53.484;10.216;2023-07-13T03:25:50;7.40;;;5.03;;
13571;SDS011;6857;53.484;10.216;2023-07-13T03:28:16;6.33;;;5.53;;
13571;SDS011;6857;53.484;10.216;2023-07-13T03:30:42;9.47;;;5.90;;
13571;SDS011;6857;53.484;10.216;2023-07-13T03:33:08;8.67;;;6.10;;
13571;SDS011;6857;53.484;10.216;2023-07-13T03:35:34;9.00;;;6.03;;
13571;SDS011;6857;53.484;10.216;2023-07-13T03:38:01;6.40;;;5.67;;
13571;SDS011;6857;53.484;10.216;2023-07-13T03:40:27;6.40;;;5.40;;
13571;SDS011;6857;53.484;10.216;2023-07-13T03:42:53;7.67;;;6.23;;
13571;SDS011;6857;53.484;10.216;2023-07-13T03:45:19;10.17;;;7.67;;
13571;SDS011;6857;53.484;10.216;2023-07-13T03:47:45;11.30;;;7.00;;
13571;SDS011;6857;53.484;10.216;2023-07-13T03:50:11;9.43;;;5.67;;
13571;SDS011;6857;53.484;10.216;2023-07-13T03:52:37;7.60;;;5.93;;
13571;SDS011;6857;53.484;10.216;2023-07-13T03:55:03;6.83;;;6.00;;
13571;SDS011;6857;53.484;10.216;2023-07-13T03:57:30;6.33;;;5.67;;
13571;SDS011;6857;53.484;10.216;2023-07-13T03:59:56;12.00;;;9.37;;
13571;SDS011;6857;53.484;10.216;2023-07-13T04:02:22;7.47;;;6.10;;
13571;SDS011;6857;53.484;10.216;2023-07-13T04:04:48;12.40;;;7.47;;
13571;SDS011;6857;53.484;10.216;2023-07-13T04:07:14;8.37;;;7.27;;
13571;SDS011;6857;53.484;10.216;2023-07-13T04:09:40;9.53;;;8.30;;
13571;SDS011;6857;53.484;10.216;2023-07-13T04:12:06;12.33;;;6.73;;
13571;SDS011;6857;53.484;10.216;2023-07-13T04:14:32;10.47;;;6.83;;
13571;SDS011;6857;53.484;10.216;2023-07-13T04:16:58;10.17;;;7.57;;
13571;SDS011;6857;53.484;10.216;2023-07-13T04:19:24;6.20;;;5.57;;
13571;SDS011;6857;53.484;10.216;2023-07-13T04:21:50;9.57;;;5.60;;
13571;SDS011;6857;53.484;10.216;2023-07-13T04:24:16;9.03;;;5.97;;
13571;SDS011;6857;53.484;10.216;2023-07-13T04:26:42;6.83;;;5.17;;
13571;SDS011;6857;53.484;10.216;2023-07-13T04:29:08;9.90;;;5.10;;
13571;SDS011;6857;53.484;10.216;2023-07-13T04:31:34;7.67;;;5.03;;
13571;SDS011;6857;53.484;10.216;2023-07-13T04:34:00;10.87;;;5.43;;
13571;SDS011;6857;53.484;10.216;2023-07-13T04:36:27;9.73;;;5.50;;
13571;SDS011;6857;53.484;10.216;2023-07-13T04:38:53;7.67;;;5.00;;
13571;SDS011;6857;53.484;10.216;2023-07-13T04:41:20;7.97;;;5.17;;
13571;SDS011;6857;53.484;10.216;2023-07-13T04:43:46;8.43;;;5.30;;
13571;SDS011;6857;53.484;10.216;2023-07-13T04:46:13;7.53;;;5.30;;
13571;SDS011;6857;53.484;10.216;2023-07-13T04:48:40;10.23;;;5.23;;
13571;SDS011;6857;53.484;10.216;2023-07-13T04:51:06;7.83;;;5.30;;
13571;SDS011;6857;53.484;10.216;2023-07-13T04:53:32;8.90;;;5.03;;
13571;SDS011;6857;53.484;10.216;2023-07-13T04:55:59;6.40;;;4.70;;
13571;SDS011;6857;53.484;10.216;2023-07-13T04:58:25;5.67;;;4.90;;
13571;SDS011;6857;53.484;10.216;2023-07-13T05:00:52;10.73;;;5.43;;
13571;SDS011;6857;53.484;10.216;2023-07-13T05:03:18;7.87;;;4.70;;
13571;SDS011;6857;53.484;10.216;2023-07-13T05:05:53;7.27;;;5.03;;
13571;SDS011;6857;53.484;10.216;2023-07-13T05:08:19;8.33;;;4.80;;
13571;SDS011;6857;53.484;10.216;2023-07-13T05:10:45;7.83;;;5.13;;
13571;SDS011;6857;53.484;10.216;2023-07-13T05:13:11;8.40;;;5.17;;
13571;SDS011;6857;53.484;10.216;2023-07-13T05:15:37;10.70;;;5.20;;
13571;SDS011;6857;53.484;10.216;2023-07-13T05:18:03;9.43;;;6.10;;
13571;SDS011;6857;53.484;10.216;2023-07-13T05:20:29;9.17;;;5.37;;
13571;SDS011;6857;53.484;10.216;2023-07-13T05:22:55;9.90;;;6.67;;
13571;SDS011;6857;53.484;10.216;2023-07-13T05:25:21;5.67;;;4.73;;
13571;SDS011;6857;53.484;10.216;2023-07-13T05:27:47;8.30;;;5.37;;
13571;SDS011;6857;53.484;10.216;2023-07-13T05:30:14;7.07;;;4.60;;
13571;SDS011;6857;53.484;10.216;2023-07-13T05:32:40;8.57;;;4.70;;
13571;SDS011;6857;53.484;10.216;2023-07-13T05:35:06;9.87;;;5.27;;
13571;SDS011;6857;53.484;10.216;2023-07-13T05:37:32;11.20;;;5.03;;
13571;SDS011;6857;53.484;10.216;2023-07-13T05:39:59;7.70;;;4.50;;
13571;SDS011;6857;53.484;10.216;2023-07-13T05:42:25;10.43;;;4.93;;
13571;SDS011;6857;53.484;10.216;2023-07-13T05:44:51;11.23;;;5.30;;
13571;SDS011;6857;53.484;10.216;2023-07-13T05:47:16;15.20;;;9.67;;
13571;SDS011;6857;53.484;10.216;2023-07-13T05:49:42;10.57;;;3.80;;
13571;SDS011;6857;53.484;10.216;2023-07-13T05:52:08;8.57;;;3.83;;
13571;SDS011;6857;53.484;10.216;2023-07-13T05:54:35;9.77;;;3.70;;
13571;SDS011;6857;53.484;10.216;2023-07-13T05:57:01;8.60;;;3.60;;
13571;SDS011;6857;53.484;10.216;2023-07-13T05:59:27;8.40;;;3.60;;
13571;SDS011;6857;53.484;10.216;2023-07-13T06:01:53;9.37;;;3.70;;
13571;SDS011;6857;53.484;10.216;2023-07-13T06:04:19;7.30;;;3.40;;
13571;SDS011;6857;53.484;10.216;2023-07-13T06:06:45;9.53;;;3.63;;
13571;SDS011;6857;53.484;10.216;2023-07-13T06:09:11;8.80;;;3.73;;
13571;SDS011;6857;53.484;10.216;2023-07-13T06:11:37;6.70;;;3.40;;
13571;SDS011;6857;53.484;10.216;2023-07-13T06:14:03;9.47;;;3.73;;
13571;SDS011;6857;53.484;10.216;2023-07-13T06:16:29;13.70;;;4.30;;
13571;SDS011;6857;53.484;10.216;2023-07-13T06:18:55;11.07;;;3.30;;
13571;SDS011;6857;53.484;10.216;2023-07-13T06:21:21;7.50;;;3.57;;
13571;SDS011;6857;53.484;10.216;2023-07-13T06:23:48;8.83;;;3.30;;
13571;SDS011;6857;53.484;10.216;2023-07-13T06:26:15;11.10;;;3.73;;
13571;SDS011;6857;53.484;10.216;2023-07-13T06:28:41;10.93;;;3.13;;
13571;SDS011;6857;53.484;10.216;2023-07-13T06:31:08;8.47;;;3.67;;
13571;SDS011;6857;53.484;10.216;2023-07-13T06:33:35;11.17;;;3.90;;
13571;SDS011;6857;53.484;10.216;2023-07-13T06:36:01;10.90;;;3.80;;
13571;SDS011;6857;53.484;10.216;2023-07-13T06:38:28;10.13;;;3.63;;
13571;SDS011;6857;53.484;10.216;2023-07-13T06:40:54;7.90;;;3.37;;
13571;SDS011;6857;53.484;10.216;2023-07-13T06:43:20;8.60;;;2.80;;
13571;SDS011;6857;53.484;10.216;2023-07-13T06:45:46;11.33;;;2.73;;
13571;SDS011;6857;53.484;10.216;2023-07-13T06:48:14;11.60;;;2.83;;
13571;SDS011;6857;53.484;10.216;2023-07-13T06:50:41;10.17;;;3.07;;
13571;SDS011;6857;53.484;10.216;2023-07-13T06:53:07;13.07;;;3.23;;
13571;SDS011;6857;53.484;10.216;2023-07-13T06:55:33;11.43;;;3.20;;
13571;SDS011;6857;53.484;10.216;2023-07-13T06:57:59;9.50;;;2.77;;
13571;SDS011;6857;53.484;10.216;2023-07-13T07:00:25;8.23;;;2.87;;
13571;SDS011;6857;53.484;10.216;2023-07-13T07:02:51;8.43;;;2.80;;
13571;SDS011;6857;53.484;10.216;2023-07-13T07:05:17;9.30;;;2.90;;
13571;SDS011;6857;53.484;10.216;2023-07-13T07:07:47;12.27;;;3.27;;
13571;SDS011;6857;53.484;10.216;2023-07-13T07:10:13;13.37;;;3.07;;
13571;SDS011;6857;53.484;10.216;2023-07-13T07:12:39;9.27;;;3.17;;
13571;SDS011;6857;53.484;10.216;2023-07-13T07:15:05;9.70;;;2.87;;
13571;SDS011;6857;53.484;10.216;2023-07-13T07:17:31;7.40;;;2.67;;
13571;SDS011;6857;53.484;10.216;2023-07-13T07:19:57;7.80;;;2.73;;
13571;SDS011;6857;53.484;10.216;2023-07-13T07:22:23;8.83;;;2.90;;
13571;SDS011;6857;53.484;10.216;2023-07-13T07:24:52;10.20;;;2.90;;
13571;SDS011;6857;53.484;10.216;2023-07-13T07:27:18;10.97;;;3.07;;
13571;SDS011;6857;53.484;10.216;2023-07-13T07:29:44;7.17;;;3.10;;
13571;SDS011;6857;53.484;10.216;2023-07-13T07:32:10;8.83;;;2.87;;
13571;SDS011;6857;53.484;10.216;2023-07-13T07:34:36;8.43;;;2.80;;
13571;SDS011;6857;53.484;10.216;2023-07-13T07:37:02;12.77;;;3.20;;
13571;SDS011;6857;53.484;10.216;2023-07-13T07:39:28;8.40;;;2.77;;
13571;SDS011;6857;53.484;10.216;2023-07-13T07:41:54;6.27;;;2.80;;
13571;SDS011;6857;53.484;10.216;2023-07-13T07:44:20;11.70;;;2.90;;
13571;SDS011;6857;53.484;10.216;2023-07-13T07:46:46;10.97;;;3.03;;
13571;SDS011;6857;53.484;10.216;2023-07-13T07:49:12;8.70;;;2.70;;
13571;SDS011;6857;53.484;10.216;2023-07-13T07:51:38;6.60;;;2.33;;
13571;SDS011;6857;53.484;10.216;2023-07-13T07:54:04;10.47;;;2.90;;
13571;SDS011;6857;53.484;10.216;2023-07-13T07:56:30;5.03;;;2.20;;
13571;SDS011;6857;53.484;10.216;2023-07-13T07:58:56;7.13;;;2.63;;
13571;SDS011;6857;53.484;10.216;2023-07-13T08:01:22;8.73;;;3.00;;
13571;SDS011;6857;53.484;10.216;2023-07-13T08:03:48;7.67;;;2.40;;
13571;SDS011;6857;53.484;10.216;2023-07-13T08:06:14;7.13;;;2.43;;
13571;SDS011;6857;53.484;10.216;2023-07-13T08:08:40;7.90;;;2.73;;
13571;SDS011;6857;53.484;10.216;2023-07-13T08:11:07;7.67;;;2.43;;
13571;SDS011;6857;53.484;10.216;2023-07-13T08:13:34;8.00;;;2.80;;
13571;SDS011;6857;53.484;10.216;2023-07-13T08:16:00;7.43;;;2.50;;
13571;SDS011;6857;53.484;10.216;2023-07-13T08:18:26;7.13;;;2.60;;
13571;SDS011;6857;53.484;10.216;2023-07-13T08:20:53;6.10;;;2.60;;
13571;SDS011;6857;53.484;10.216;2023-07-13T08:23:21;6.23;;;2.60;;
13571;SDS011;6857;53.484;10.216;2023-07-13T08:25:53;7.70;;;3.20;;
13571;SDS011;6857;53.484;10.216;2023-07-13T08:28:20;9.17;;;3.50;;
13571;SDS011;6857;53.484;10.216;2023-07-13T08:30:46;7.47;;;2.37;;
13571;SDS011;6857;53.484;10.216;2023-07-13T08:33:14;8.27;;;2.73;;
13571;SDS011;6857;53.484;10.216;2023-07-13T08:35:40;8.10;;;2.90;;
13571;SDS011;6857;53.484;10.216;2023-07-13T08:38:06;9.17;;;2.80;;
13571;SDS011;6857;53.484;10.216;2023-07-13T08:40:32;6.77;;;2.77;;
13571;SDS011;6857;53.484;10.216;2023-07-13T08:42:59;9.23;;;2.90;;
13571;SDS011;6857;53.484;10.216;2023-07-13T08:45:28;9.13;;;2.43;;
13571;SDS011;6857;53.484;10.216;2023-07-13T08:48:08;9.23;;;2.53;;
13571;SDS011;6857;53.484;10.216;2023-07-13T08:50:39;7.03;;;2.07;;
13571;SDS011;6857;53.484;10.216;2023-07-13T08:53:09;10.60;;;5.53;;
13571;SDS011;6857;53.484;10.216;2023-07-13T08:55:37;7.40;;;2.47;;
13571;SDS011;6857;53.484;10.216;2023-07-13T08:58:09;6.83;;;2.40;;
13571;SDS011;6857;53.484;10.216;2023-07-13T09:00:39;9.60;;;2.53;;
13571;SDS011;6857;53.484;10.216;2023-07-13T09:03:12;3.83;;;2.20;;
13571;SDS011;6857;53.484;10.216;2023-07-13T09:05:43;8.30;;;2.83;;
13571;SDS011;6857;53.484;10.216;2023-07-13T09:08:21;7.70;;;2.67;;
13571;SDS011;6857;53.484;10.216;2023-07-13T09:10:52;6.27;;;2.50;;
13571;SDS011;6857;53.484;10.216;2023-07-13T09:13:53;10.23;;;2.20;;
13571;SDS011;6857;53.484;10.216;2023-07-13T09:16:10;6.60;;;2.20;;
13571;SDS011;6857;53.484;10.216;2023-07-13T09:18:38;4.90;;;2.23;;
13571;SDS011;6857;53.484;10.216;2023-07-13T09:21:07;5.93;;;2.47;;
13571;SDS011;6857;53.484;10.216;2023-07-13T09:23:34;7.53;;;2.67;;
13571;SDS011;6857;53.484;10.216;2023-07-13T09:26:14;7.13;;;2.20;;
13571;SDS011;6857;53.484;10.216;2023-07-13T09:28:43;7.77;;;2.63;;
13571;SDS011;6857;53.484;10.216;2023-07-13T09:31:16;9.23;;;2.77;;
13571;SDS011;6857;53.484;10.216;2023-07-13T09:33:43;8.50;;;2.67;;
13571;SDS011;6857;53.484;10.216;2023-07-13T09:36:29;5.90;;;2.47;;
13571;SDS011;6857;53.484;10.216;2023-07-13T09:39:02;8.87;;;2.90;;
13571;SDS011;6857;53.484;10.216;2023-07-13T09:44:16;7.57;;;2.90;;
13571;SDS011;6857;53.484;10.216;2023-07-13T09:46:44;7.60;;;2.90;;
13571;SDS011;6857;53.484;10.216;2023-07-13T09:49:11;7.40;;;2.70;;
13571;SDS011;6857;53.484;10.216;2023-07-13T09:51:37;4.30;;;2.40;;
13571;SDS011;6857;53.484;10.216;2023-07-13T09:54:04;10.30;;;3.27;;
13571;SDS011;6857;53.484;10.216;2023-07-13T09:56:30;7.77;;;3.13;;
13571;SDS011;6857;53.484;10.216;2023-07-13T09:58:57;5.70;;;2.87;;
13571;SDS011;6857;53.484;10.216;2023-07-13T10:01:34;3.90;;;2.90;;
13571;SDS011;6857;53.484;10.216;2023-07-13T10:04:00;4.27;;;3.20;;
13571;SDS011;6857;53.484;10.216;2023-07-13T10:06:26;7.03;;;3.20;;
13571;SDS011;6857;53.484;10.216;2023-07-13T10:08:52;7.50;;;3.13;;
13571;SDS011;6857;53.484;10.216;2023-07-13T10:11:20;6.50;;;3.07;;
13571;SDS011;6857;53.484;10.216;2023-07-13T10:16:13;6.27;;;2.60;;
13571;SDS011;6857;53.484;10.216;2023-07-13T10:18:44;5.50;;;2.30;;
13571;SDS011;6857;53.484;10.216;2023-07-13T10:21:13;3.83;;;2.27;;
13571;SDS011;6857;53.484;10.216;2023-07-13T10:23:39;5.27;;;2.57;;
13571;SDS011;6857;53.484;10.216;2023-07-13T10:26:09;6.00;;;2.30;;
13571;SDS011;6857;53.484;10.216;2023-07-13T10:28:37;5.50;;;2.60;;
13571;SDS011;6857;53.484;10.216;2023-07-13T10:31:04;6.63;;;2.03;;
13571;SDS011;6857;53.484;10.216;2023-07-13T10:33:31;4.43;;;2.00;;
13571;SDS011;6857;53.484;10.216;2023-07-13T10:38:35;4.07;;;2.10;;
13571;SDS011;6857;53.484;10.216;2023-07-13T10:41:02;4.97;;;2.00;;
13571;SDS011;6857;53.484;10.216;2023-07-13T10:44:21;3.27;;;2.27;;
13571;SDS011;6857;53.484;10.216;2023-07-13T10:46:15;4.40;;;1.90;;
13571;SDS011;6857;53.484;10.216;2023-07-13T10:48:43;5.40;;;2.40;;
13571;SDS011;6857;53.484;10.216;2023-07-13T10:51:10;7.67;;;2.37;;
13571;SDS011;6857;53.484;10.216;2023-07-13T10:53:38;5.00;;;2.30;;
13571;SDS011;6857;53.484;10.216;2023-07-13T10:58:39;5.63;;;2.30;;
13571;SDS011;6857;53.484;10.216;2023-07-13T11:03:32;4.57;;;2.60;;
13571;SDS011;6857;53.484;10.216;2023-07-13T11:08:51;3.57;;;2.13;;
13571;SDS011;6857;53.484;10.216;2023-07-13T11:18:48;5.28;;;2.10;;
13571;SDS011;6857;53.484;10.216;2023-07-13T11:23:41;5.30;;;2.03;;
13571;SDS011;6857;53.484;10.216;2023-07-13T11:28:54;4.90;;;2.27;;
13571;SDS011;6857;53.484;10.216;2023-07-13T11:31:20;3.27;;;2.13;;
13571;SDS011;6857;53.484;10.216;2023-07-13T11:33:55;4.37;;;2.13;;
13571;SDS011;6857;53.484;10.216;2023-07-13T11:36:23;7.87;;;2.30;;
13571;SDS011;6857;53.484;10.216;2023-07-13T11:41:50;4.30;;;2.00;;
13571;SDS011;6857;53.484;10.216;2023-07-13T11:44:18;3.47;;;1.80;;
13571;SDS011;6857;53.484;10.216;2023-07-13T11:46:45;7.45;;;4.35;;
13571;SDS011;6857;53.484;10.216;2023-07-13T11:49:13;4.40;;;2.08;;
13571;SDS011;6857;53.484;10.216;2023-07-13T11:51:41;5.37;;;1.90;;
13571;SDS011;6857;53.484;10.216;2023-07-13T11:54:14;12.03;;;2.30;;
13571;SDS011;6857;53.484;10.216;2023-07-13T11:56:41;2.72;;;1.67;;
13571;SDS011;6857;53.484;10.216;2023-07-13T11:59:07;4.82;;;1.80;;
13571;SDS011;6857;53.484;10.216;2023-07-13T12:01:40;3.38;;;1.42;;
13571;SDS011;6857;53.484;10.216;2023-07-13T12:04:08;3.05;;;1.52;;
13571;SDS011;6857;53.484;10.216;2023-07-13T12:06:38;2.65;;;1.73;;
13571;SDS011;6857;53.484;10.216;2023-07-13T12:09:13;3.13;;;2.00;;
13571;SDS011;6857;53.484;10.216;2023-07-13T12:11:43;3.03;;;1.35;;
13571;SDS011;6857;53.484;10.216;2023-07-13T12:14:14;5.13;;;1.52;;
13571;SDS011;6857;53.484;10.216;2023-07-13T12:16:40;3.03;;;1.48;;
13571;SDS011;6857;53.484;10.216;2023-07-13T12:19:09;3.10;;;1.50;;
13571;SDS011;6857;53.484;10.216;2023-07-13T12:21:41;6.00;;;1.60;;
13571;SDS011;6857;53.484;10.216;2023-07-13T12:24:13;4.10;;;1.50;;
13571;SDS011;6857;53.484;10.216;2023-07-13T12:26:40;2.30;;;1.45;;
13571;SDS011;6857;53.484;10.216;2023-07-13T12:29:06;5.00;;;1.58;;
13571;SDS011;6857;53.484;10.216;2023-07-13T12:31:37;2.83;;;1.50;;
13571;SDS011;6857;53.484;10.216;2023-07-13T12:34:10;5.85;;;1.95;;
13571;SDS011;6857;53.484;10.216;2023-07-13T12:36:37;5.75;;;1.52;;
13571;SDS011;6857;53.484;10.216;2023-07-13T12:39:09;7.87;;;1.87;;
13571;SDS011;6857;53.484;10.216;2023-07-13T12:41:38;6.13;;;1.83;;
13571;SDS011;6857;53.484;10.216;2023-07-13T12:44:04;5.77;;;2.20;;
13571;SDS011;6857;53.484;10.216;2023-07-13T12:46:30;5.30;;;1.70;;
13571;SDS011;6857;53.484;10.216;2023-07-13T12:48:57;9.30;;;2.87;;
13571;SDS011;6857;53.484;10.216;2023-07-13T12:51:24;4.70;;;2.20;;
13571;SDS011;6857;53.484;10.216;2023-07-13T12:53:55;6.00;;;2.20;;
13571;SDS011;6857;53.484;10.216;2023-07-13T12:56:23;8.77;;;2.63;;
13571;SDS011;6857;53.484;10.216;2023-07-13T12:58:50;6.50;;;2.53;;
13571;SDS011;6857;53.484;10.216;2023-07-13T13:01:20;5.90;;;2.70;;
13571;SDS011;6857;53.484;10.216;2023-07-13T13:03:48;5.17;;;2.73;;
13571;SDS011;6857;53.484;10.216;2023-07-13T13:08:47;5.77;;;3.00;;
13571;SDS011;6857;53.484;10.216;2023-07-13T13:11:14;6.10;;;3.00;;
13571;SDS011;6857;53.484;10.216;2023-07-13T13:13:41;7.73;;;3.17;;
13571;SDS011;6857;53.484;10.216;2023-07-13T13:16:52;5.87;;;2.67;;
13571;SDS011;6857;53.484;10.216;2023-07-13T13:18:54;5.37;;;2.93;;
13571;SDS011;6857;53.484;10.216;2023-07-13T13:21:22;4.77;;;2.50;;
13571;SDS011;6857;53.484;10.216;2023-07-13T13:23:48;4.13;;;2.40;;
13571;SDS011;6857;53.484;10.216;2023-07-13T13:26:16;4.07;;;2.17;;
13571;SDS011;6857;53.484;10.216;2023-07-13T13:28:42;5.77;;;2.40;;
13571;SDS011;6857;53.484;10.216;2023-07-13T13:31:09;4.20;;;2.03;;
13571;SDS011;6857;53.484;10.216;2023-07-13T13:33:37;3.10;;;2.00;;
13571;SDS011;6857;53.484;10.216;2023-07-13T13:36:09;2.87;;;1.87;;
13571;SDS011;6857;53.484;10.216;2023-07-13T13:38:37;3.70;;;1.47;;
13571;SDS011;6857;53.484;10.216;2023-07-13T13:41:03;2.63;;;1.60;;
13571;SDS011;6857;53.484;10.216;2023-07-13T13:43:29;3.30;;;1.70;;
13571;SDS011;6857;53.484;10.216;2023-07-13T13:45:56;3.57;;;2.00;;
13571;SDS011;6857;53.484;10.216;2023-07-13T13:48:28;1.90;;;1.20;;
13571;SDS011;6857;53.484;10.216;2023-07-13T13:50:55;3.50;;;1.70;;
13571;SDS011;6857;53.484;10.216;2023-07-13T13:53:21;4.33;;;2.57;;
13571;SDS011;6857;53.484;10.216;2023-07-13T13:55:48;2.70;;;1.53;;
13571;SDS011;6857;53.484;10.216;2023-07-13T13:58:14;1.93;;;1.50;;
13571;SDS011;6857;53.484;10.216;2023-07-13T14:00:40;3.23;;;1.60;;
13571;SDS011;6857;53.484;10.216;2023-07-13T14:03:14;2.37;;;1.60;;
13571;SDS011;6857;53.484;10.216;2023-07-13T14:05:40;2.50;;;1.57;;
13571;SDS011;6857;53.484;10.216;2023-07-13T14:08:11;4.33;;;1.60;;
13571;SDS011;6857;53.484;10.216;2023-07-13T14:10:38;2.20;;;1.67;;
13571;SDS011;6857;53.484;10.216;2023-07-13T14:13:04;3.90;;;2.00;;
13571;SDS011;6857;53.484;10.216;2023-07-13T14:15:33;4.17;;;1.90;;
13571;SDS011;6857;53.484;10.216;2023-07-13T14:17:59;4.63;;;1.80;;
13571;SDS011;6857;53.484;10.216;2023-07-13T14:20:25;3.73;;;2.07;;
13571;SDS011;6857;53.484;10.216;2023-07-13T14:22:52;3.03;;;1.83;;
13571;SDS011;6857;53.484;10.216;2023-07-13T14:25:18;4.83;;;1.73;;
13571;SDS011;6857;53.484;10.216;2023-07-13T14:27:45;2.30;;;1.90;;
13571;SDS011;6857;53.484;10.216;2023-07-13T14:30:14;5.57;;;1.93;;
13571;SDS011;6857;53.484;10.216;2023-07-13T14:32:41;2.70;;;1.77;;
13571;SDS011;6857;53.484;10.216;2023-07-13T14:35:10;2.53;;;1.47;;
13571;SDS011;6857;53.484;10.216;2023-07-13T14:37:37;2.50;;;1.80;;
13571;SDS011;6857;53.484;10.216;2023-07-13T14:40:05;2.87;;;1.90;;
13571;SDS011;6857;53.484;10.216;2023-07-13T14:42:37;4.97;;;2.10;;
13571;SDS011;6857;53.484;10.216;2023-07-13T14:45:03;2.17;;;1.90;;
13571;SDS011;6857;53.484;10.216;2023-07-13T14:47:29;2.87;;;2.20;;
13571;SDS011;6857;53.484;10.216;2023-07-13T14:49:55;3.17;;;2.27;;
13571;SDS011;6857;53.484;10.216;2023-07-13T14:52:22;4.10;;;2.07;;
13571;SDS011;6857;53.484;10.216;2023-07-13T14:54:48;2.23;;;1.50;;
13571;SDS011;6857;53.484;10.216;2023-07-13T14:57:16;3.57;;;2.07;;
13571;SDS011;6857;53.484;10.216;2023-07-13T14:59:43;3.83;;;1.90;;
13571;SDS011;6857;53.484;10.216;2023-07-13T15:02:28;3.67;;;1.70;;
13571;SDS011;6857;53.484;10.216;2023-07-13T15:04:55;4.40;;;2.50;;
13571;SDS011;6857;53.484;10.216;2023-07-13T15:07:21;3.00;;;2.10;;
13571;SDS011;6857;53.484;10.216;2023-07-13T15:09:48;6.77;;;2.10;;
13571;SDS011;6857;53.484;10.216;2023-07-13T15:12:15;2.67;;;2.17;;
13571;SDS011;6857;53.484;10.216;2023-07-13T15:14:41;3.23;;;2.00;;
13571;SDS011;6857;53.484;10.216;2023-07-13T15:17:38;2.20;;;1.83;;
13571;SDS011;6857;53.484;10.216;2023-07-13T15:20:15;3.17;;;1.90;;